Time;durP1;ratioP1;P1;durP2;ratioP2;P2;SDS_P1;SDS_P2;PMS_P1;PMS_P2;Temp;Humidity;BMP_temperature;BMP_pressure;BME280_temperature;BME280_humidity;BME280_pressure;Samples;Min_cycle;Max_cycle;Signal;HPM_P1;HPM_P2
2020/12/03 00:01:15;;;;;;;31.85;21.02;;;;;;;2.98;100.00;100324.59;10462689;28;20052;-70
2020/12/03 00:06:26;;;;;;;28.73;17.67;;;;;;;2.98;100.00;100313.34;10460784;28;20495;-70
2020/12/03 00:11:32;;;;;;;32.63;19.42;;;;;;;2.95;100.00;100306.44;10442460;28;20395;-71
2020/12/03 00:16:34;;;;;;;31.30;21.52;;;;;;;2.98;100.00;100297.72;10422794;28;20060;-70
2020/12/03 00:21:48;;;;;;;32.70;20.02;;;;;;;2.94;100.00;100290.84;10459685;28;20037;-71
2020/12/03 00:26:51;;;;;;;28.30;19.17;;;;;;;2.91;100.00;100291.78;10456275;28;20056;-71
2020/12/03 00:31:52;;;;;;;36.83;22.20;;;;;;;2.91;100.00;100276.16;10430247;28;20416;-70
2020/12/03 00:36:53;;;;;;;29.13;19.25;;;;;;;2.93;100.00;100260.53;10417610;28;20052;-70
2020/12/03 00:41:54;;;;;;;32.75;19.08;;;;;;;2.95;100.00;100258.75;10492629;28;20040;-71
2020/12/03 00:46:56;;;;;;;32.85;20.90;;;;;;;2.96;100.00;100250.06;10499709;28;20036;-70
2020/12/03 00:51:57;;;;;;;35.72;22.35;;;;;;;3.03;100.00;100246.44;10416102;28;20493;-70
2020/12/03 00:57:07;;;;;;;35.38;21.45;;;;;;;3.07;100.00;100242.06;10400089;28;20045;-71
2020/12/03 01:02:12;;;;;;;33.20;20.67;;;;;;;3.05;100.00;100231.66;10455988;28;20039;-70
2020/12/03 01:07:13;;;;;;;35.15;21.48;;;;;;;2.99;100.00;100227.44;10455645;28;20475;-70
2020/12/03 01:12:15;;;;;;;30.42;20.85;;;;;;;2.98;100.00;100217.94;10456689;28;20048;-70
2020/12/03 01:17:16;;;;;;;35.08;20.95;;;;;;;3.05;100.00;100221.25;10454979;28;20055;-71
2020/12/03 01:22:17;;;;;;;34.28;20.63;;;;;;;3.06;100.00;100212.56;10456044;28;20492;-70
2020/12/03 01:27:19;;;;;;;30.17;19.38;;;;;;;3.01;100.00;100191.00;10453852;28;20047;-70
2020/12/03 01:32:20;;;;;;;27.52;18.98;;;;;;;3.08;100.00;100195.19;10430164;28;20048;-70
2020/12/03 01:37:21;;;;;;;32.63;19.55;;;;;;;3.09;100.00;100185.63;10435580;28;20119;-70
2020/12/03 01:42:23;;;;;;;32.97;22.10;;;;;;;3.10;100.00;100184.75;10495910;28;20484;-70
2020/12/03 01:47:35;;;;;;;27.83;18.38;;;;;;;3.15;100.00;100186.34;10497263;28;20052;-70
2020/12/03 01:52:36;;;;;;;33.40;20.58;;;;;;;3.14;100.00;100183.78;10467607;28;20400;-71
2020/12/03 01:57:49;;;;;;;28.52;19.55;;;;;;;3.19;100.00;100180.19;10455345;28;20091;-71
2020/12/03 02:02:52;;;;;;;27.33;18.15;;;;;;;3.17;100.00;100173.31;10426132;28;20048;-70
2020/12/03 02:07:53;;;;;;;29.25;18.15;;;;;;;3.16;100.00;100161.19;10438712;28;20033;-70
2020/12/03 02:12:54;;;;;;;28.35;20.33;;;;;;;3.17;100.00;100150.75;10437725;28;20056;-70
2020/12/03 02:17:55;;;;;;;33.13;21.58;;;;;;;3.26;100.00;100150.56;10454358;28;20040;-70
2020/12/03 02:22:56;;;;;;;33.42;21.45;;;;;;;3.29;100.00;100142.66;10454889;28;20045;-70
2020/12/03 02:27:57;;;;;;;27.30;17.27;;;;;;;3.24;100.00;100128.03;10450912;28;20047;-71
2020/12/03 02:33:00;;;;;;;25.80;18.13;;;;;;;3.35;100.00;100120.81;10439731;28;20056;-71
2020/12/03 02:38:01;;;;;;;23.67;15.82;;;;;;;3.44;100.00;100097.19;10466771;28;20495;-70
2020/12/03 02:43:02;;;;;;;22.30;13.85;;;;;;;3.63;100.00;100092.41;10496118;28;20037;-71
2020/12/03 02:48:03;;;;;;;22.98;15.70;;;;;;;3.83;100.00;100092.78;10453577;28;20076;-70
2020/12/03 02:53:04;;;;;;;22.15;14.30;;;;;;;3.84;100.00;100067.59;10443511;28;20049;-70
2020/12/03 02:58:05;;;;;;;20.42;14.23;;;;;;;3.90;100.00;100062.22;10431981;28;20504;-70
2020/12/03 03:03:06;;;;;;;18.42;13.80;;;;;;;3.90;100.00;100057.84;10454602;28;20041;-70
2020/12/03 03:08:08;;;;;;;17.42;11.65;;;;;;;3.92;100.00;100043.03;10450167;28;20037;-70
2020/12/03 03:13:09;;;;;;;20.25;15.45;;;;;;;3.89;100.00;100030.09;10454874;28;20041;-70
2020/12/03 03:18:10;;;;;;;18.00;12.95;;;;;;;3.94;100.00;100032.56;10462415;28;20041;-70
2020/12/03 03:23:11;;;;;;;19.15;12.82;;;;;;;3.73;100.00;100016.59;10429344;28;20037;-70
2020/12/03 03:28:12;;;;;;;18.65;14.50;;;;;;;3.79;100.00;100026.00;10451893;28;20041;-70
2020/12/03 03:33:13;;;;;;;21.17;14.48;;;;;;;3.77;100.00;100009.56;10461001;28;20049;-70
2020/12/03 03:38:15;;;;;;;18.00;13.77;;;;;;;3.78;100.00;100006.91;10466801;28;20051;-70
2020/12/03 03:43:16;;;;;;;17.35;12.45;;;;;;;3.78;100.00;100004.31;10503444;28;20086;-70
2020/12/03 03:48:17;;;;;;;18.75;12.90;;;;;;;3.86;100.00;99992.81;10476307;28;20462;-70
2020/12/03 03:53:18;;;;;;;20.70;14.35;;;;;;;3.91;100.00;99975.34;10459680;28;20431;-70
2020/12/03 03:58:20;;;;;;;18.38;13.07;;;;;;;3.97;100.00;99959.53;10449302;28;20049;-70
2020/12/03 04:03:22;;;;;;;19.90;13.30;;;;;;;4.06;100.00;99948.84;10459334;28;20040;-71
2020/12/03 04:08:25;;;;;;;20.80;13.48;;;;;;;4.11;100.00;99932.16;10458971;28;20049;-70
2020/12/03 04:13:26;;;;;;;20.40;13.23;;;;;;;4.04;100.00;99935.84;10459874;28;20516;-70
2020/12/03 04:18:27;;;;;;;18.77;13.43;;;;;;;3.86;100.00;99920.72;10458617;28;20443;-70
2020/12/03 04:23:29;;;;;;;17.35;12.73;;;;;;;3.80;100.00;99913.09;10458416;28;20045;-70
2020/12/03 04:28:30;;;;;;;17.48;11.75;;;;;;;3.83;100.00;99918.22;10438603;28;20496;-70
2020/12/03 04:33:32;;;;;;;14.20;10.30;;;;;;;3.87;100.00;99911.16;10453760;28;20094;-70
2020/12/03 04:38:34;;;;;;;13.75;9.35;;;;;;;3.85;100.00;99907.75;10467154;28;20044;-70
2020/12/03 04:43:44;;;;;;;15.23;10.23;;;;;;;3.64;100.00;99890.97;10482834;28;20480;-70
2020/12/03 04:49:07;;;;;;;14.57;9.98;;;;;;;3.59;100.00;99890.25;10455384;28;20052;-70
2020/12/03 04:54:30;;;;;;;14.32;10.82;;;;;;;3.59;100.00;99885.91;10466279;28;20048;-70
2020/12/03 04:59:49;;;;;;;12.63;8.45;;;;;;;3.56;100.00;99883.38;10462189;28;20485;-70
2020/12/03 05:05:15;;;;;;;11.65;8.23;;;;;;;3.66;100.00;99887.44;10473851;28;20041;-70
2020/12/03 05:10:25;;;;;;;10.13;6.97;;;;;;;3.67;100.00;99875.25;10450582;28;20045;-70
2020/12/03 05:15:33;;;;;;;9.98;6.95;;;;;;;3.68;100.00;99880.41;10426798;28;20287;-70
2020/12/03 05:20:43;;;;;;;11.57;7.63;;;;;;;3.69;100.00;99866.50;10439010;28;20575;-70
2020/12/03 05:25:46;;;;;;;11.38;8.02;;;;;;;3.70;100.00;99864.75;10444574;28;20053;-70
2020/12/03 05:30:49;;;;;;;13.85;7.55;;;;;;;3.62;100.00;99848.47;10424122;28;20057;-70
2020/12/03 05:35:50;;;;;;;11.40;7.63;;;;;;;3.70;100.00;99843.91;10420876;28;20036;-70
2020/12/03 05:41:05;;;;;;;11.57;7.88;;;;;;;3.63;100.00;99831.97;10480646;28;20522;-70
2020/12/03 05:46:06;;;;;;;10.48;7.75;;;;;;;3.69;100.00;99831.78;10462667;28;20048;-70
2020/12/03 05:51:36;;;;;;;10.95;7.43;;;;;;;3.64;100.00;99812.84;10423395;28;20044;-70
2020/12/03 05:56:37;;;;;;;10.88;8.07;;;;;;;3.59;100.00;99786.09;10399178;28;20053;-70
2020/12/03 06:01:54;;;;;;;10.70;6.70;;;;;;;3.54;100.00;99780.13;10437865;28;20060;-70
2020/12/03 06:07:26;;;;;;;13.32;7.50;;;;;;;3.54;100.00;99781.00;10422546;28;20477;-70
2020/12/03 06:12:56;;;;;;;12.60;7.95;;;;;;;3.44;100.00;99762.16;10415258;28;20049;-70
2020/12/03 06:18:20;;;;;;;11.60;8.45;;;;;;;3.53;100.00;99770.63;10440640;28;20041;-70
2020/12/03 06:23:38;;;;;;;14.43;9.38;;;;;;;3.43;100.00;99757.84;10455647;28;20080;-71
2020/12/03 06:29:01;;;;;;;13.50;8.98;;;;;;;3.46;100.00;99751.72;10432375;28;20400;-70
2020/12/03 06:34:23;;;;;;;16.98;10.40;;;;;;;3.39;100.00;99721.56;10454248;28;20400;-70
2020/12/03 06:39:42;;;;;;;16.08;11.00;;;;;;;3.30;100.00;99709.66;10478507;28;20059;-70
2020/12/03 06:44:54;;;;;;;14.48;10.07;;;;;;;3.25;100.00;99697.69;10469740;28;20103;-70
2020/12/03 06:50:06;;;;;;;12.90;9.10;;;;;;;3.27;100.00;99693.25;10463017;28;20072;-70
2020/12/03 06:55:41;;;;;;;14.68;9.82;;;;;;;3.35;100.00;99689.53;10487588;28;20452;-69
2020/12/03 07:00:53;;;;;;;15.30;9.77;;;;;;;3.43;100.00;99687.56;10498773;28;20072;-69
2020/12/03 07:06:01;;;;;;;17.98;11.55;;;;;;;3.46;100.00;99693.59;10502558;28;20040;-69
2020/12/03 07:11:48;;;;;;;15.82;9.93;;;;;;;3.47;100.00;99687.47;10482203;28;20044;-70
2020/12/03 07:17:08;;;;;;;14.32;10.00;;;;;;;3.41;100.00;99692.00;10464064;28;20361;-71
2020/12/03 07:22:30;;;;;;;15.20;10.48;;;;;;;3.35;100.00;99686.94;10490733;28;20490;-70
2020/12/03 07:28:00;;;;;;;14.75;10.48;;;;;;;3.27;100.00;99681.09;10483168;28;20044;-69
2020/12/03 07:33:12;;;;;;;18.40;10.48;;;;;;;3.22;100.00;99670.00;10475639;28;20051;-70
2020/12/03 07:38:28;;;;;;;16.33;10.15;;;;;;;3.21;100.00;99665.69;10501196;28;20037;-70
2020/12/03 07:43:31;;;;;;;14.75;9.20;;;;;;;3.21;100.00;99662.22;10483456;28;20399;-70
2020/12/03 07:48:32;;;;;;;14.63;9.57;;;;;;;3.22;100.00;99654.38;10480303;28;20392;-69
2020/12/03 07:53:35;;;;;;;19.02;12.18;;;;;;;3.24;100.00;99651.72;10500114;28;20053;-71
2020/12/03 07:58:39;;;;;;;15.80;9.65;;;;;;;3.25;100.00;99645.63;10489272;28;20056;-70
2020/12/03 08:03:43;;;;;;;19.90;12.30;;;;;;;3.29;100.00;99642.03;10486603;28;20067;-70
2020/12/03 08:09:04;;;;;;;19.27;11.65;;;;;;;3.26;100.00;99631.72;10467298;28;20040;-70
2020/12/03 08:14:24;;;;;;;17.40;12.52;;;;;;;3.27;100.00;99626.44;10468303;28;20040;-70
2020/12/03 08:19:35;;;;;;;19.35;12.23;;;;;;;3.23;100.00;99626.59;10495804;28;20054;-70
2020/12/03 08:24:36;;;;;;;21.92;12.13;;;;;;;3.19;100.00;99625.84;10499510;28;20040;-70
2020/12/03 08:29:37;;;;;;;20.10;12.25;;;;;;;3.20;100.00;99611.91;10469873;28;20528;-70
2020/12/03 08:34:40;;;;;;;21.23;12.80;;;;;;;3.18;100.00;99608.50;10489275;28;20044;-72
2020/12/03 08:39:43;;;;;;;20.58;13.10;;;;;;;3.17;100.00;99592.97;10466386;28;20480;-71
2020/12/03 08:44:46;;;;;;;25.05;12.55;;;;;;;3.15;100.00;99595.59;10416030;28;20053;-69
2020/12/03 08:49:47;;;;;;;14.68;8.35;;;;;;;3.16;100.00;99579.09;10419022;28;20045;-70
2020/12/03 08:54:49;;;;;;;16.13;8.85;;;;;;;3.14;100.00;99575.69;10418881;28;20057;-70
2020/12/03 08:59:58;;;;;;;16.73;9.88;;;;;;;3.19;100.00;99568.56;10447243;28;20432;-70
2020/12/03 09:05:00;;;;;;;20.02;11.45;;;;;;;3.25;100.00;99565.81;10443526;28;20047;-71
2020/12/03 09:10:03;;;;;;;19.98;10.88;;;;;;;3.23;100.00;99549.38;10455551;28;20053;-70
2020/12/03 09:15:06;;;;;;;18.45;11.45;;;;;;;3.28;100.00;99546.63;10453902;28;20057;-70
2020/12/03 09:20:11;;;;;;;19.02;13.32;;;;;;;3.28;100.00;99529.25;10439768;28;20480;-70
2020/12/03 09:25:14;;;;;;;17.23;11.30;;;;;;;3.29;100.00;99524.91;10440457;28;20045;-70
2020/12/03 09:30:24;;;;;;;20.83;11.70;;;;;;;3.40;100.00;99521.06;10459242;28;20536;-69
2020/12/03 09:35:31;;;;;;;19.60;12.30;;;;;;;3.42;100.00;99516.66;10454370;28;20053;-70
2020/12/03 09:40:34;;;;;;;18.05;11.32;;;;;;;3.50;100.00;99507.75;10481842;28;20518;-70
2020/12/03 09:45:39;;;;;;;19.40;12.40;;;;;;;3.51;100.00;99483.41;10464996;28;20500;-70
2020/12/03 09:50:42;;;;;;;22.73;13.60;;;;;;;3.53;100.00;99479.84;10437696;28;20049;-70
2020/12/03 09:55:44;;;;;;;18.33;11.70;;;;;;;3.62;100.00;99489.94;10415088;28;20409;-70
2020/12/03 10:00:46;;;;;;;16.80;10.63;;;;;;;3.70;100.00;99481.88;10441117;28;20354;-70
2020/12/03 10:05:55;;;;;;;20.92;13.43;;;;;;;3.76;100.00;99466.06;10458017;28;20033;-70
2020/12/03 10:11:30;;;;;;;26.42;16.67;;;;;;;3.83;100.00;99457.13;10457543;28;20055;-69
2020/12/03 10:16:35;;;;;;;23.23;15.05;;;;;;;3.79;100.00;99445.94;10439788;28;20128;-70
2020/12/03 10:21:49;;;;;;;24.47;15.13;;;;;;;3.80;100.00;99434.63;10457613;28;20473;-70
2020/12/03 10:27:09;;;;;;;22.70;13.60;;;;;;;3.79;100.00;99421.63;10446661;28;20041;-71
2020/12/03 10:32:16;;;;;;;22.42;13.43;;;;;;;3.72;100.00;99401.94;10454225;28;20041;-70
2020/12/03 10:37:31;;;;;;;24.05;13.32;;;;;;;3.68;100.00;99377.75;10456600;28;20060;-70
2020/12/03 10:42:36;;;;;;;;;;;;;;;3.68;100.00;99374.31;10427474;28;20048;-71
2020/12/03 10:47:51;;;;;;;21.98;13.68;;;;;;;3.76;100.00;99362.72;10415416;28;19921;-71
2020/12/03 10:52:52;;;;;;;18.73;13.37;;;;;;;3.80;100.00;99348.66;10413891;28;20046;-69
2020/12/03 10:58:00;;;;;;;20.05;11.15;;;;;;;3.85;100.00;99329.41;10443570;28;20049;-69
2020/12/03 11:03:04;;;;;;;16.52;10.07;;;;;;;3.93;100.00;99309.13;10454673;28;20044;-70
2020/12/03 11:08:05;;;;;;;16.38;10.90;;;;;;;4.15;100.00;99317.81;10437162;28;20049;-69
2020/12/03 11:13:08;;;;;;;17.10;10.10;;;;;;;4.19;100.00;99311.56;10454024;28;20041;-69
2020/12/03 11:18:18;;;;;;;16.67;9.70;;;;;;;4.20;100.00;99280.22;10442033;28;20404;-70
2020/12/03 11:23:30;;;;;;;14.80;10.60;;;;;;;4.47;100.00;99274.81;10454929;28;20045;-69
2020/12/03 11:28:35;;;;;;;14.18;8.65;;;;;;;4.40;100.00;99253.38;10453594;28;20048;-69
2020/12/03 11:33:41;;;;;;;14.18;9.43;;;;;;;4.57;100.00;99239.63;10436857;28;20056;-69
2020/12/03 11:38:51;;;;;;;15.18;9.48;;;;;;;4.56;100.00;99215.31;10451438;28;20060;-70
2020/12/03 11:49:24;;;;;;;9.93;6.80;;;;;;;4.90;100.00;99203.44;10459028;28;20052;-69
2020/12/03 11:54:36;;;;;;;9.05;5.30;;;;;;;4.91;100.00;99195.53;10447486;28;20400;-69
2020/12/03 11:59:38;;;;;;;10.32;6.75;;;;;;;4.84;100.00;99193.28;10489836;28;20061;-69
2020/12/03 12:04:47;;;;;;;10.50;7.53;;;;;;;4.92;100.00;99163.31;10499727;28;20406;-69
2020/12/03 12:15:22;;;;;;;10.80;6.55;;;;;;;5.03;100.00;99144.56;10451684;28;20056;-71
2020/12/03 12:20:24;;;;;;;10.25;7.35;;;;;;;5.09;100.00;99138.22;10488867;28;20419;-69
2020/12/03 12:25:25;;;;;;;12.02;7.20;;;;;;;5.02;100.00;99123.75;10495549;28;20096;-70
2020/12/03 12:30:26;;;;;;;12.45;5.53;;;;;;;5.14;100.00;99092.72;10497174;28;20047;-69
2020/12/03 12:35:28;;;;;;;13.45;8.77;;;;;;;5.08;100.00;99084.31;10497395;28;20043;-70
2020/12/03 12:40:29;;;;;;;10.70;6.90;;;;;;;4.98;100.00;99070.84;10495312;28;20484;-70
2020/12/03 12:45:30;;;;;;;11.10;6.88;;;;;;;5.07;100.00;99061.75;10495788;28;20056;-71
2020/12/03 12:50:31;;;;;;;12.40;7.05;;;;;;;5.15;100.00;99033.53;10477971;28;20036;-70
2020/12/03 12:55:33;;;;;;;12.52;7.18;;;;;;;5.22;100.00;99034.91;10476067;28;20059;-70
2020/12/03 13:00:34;;;;;;;12.40;6.97;;;;;;;5.27;100.00;99025.13;10492268;28;20060;-70
2020/12/03 13:05:35;;;;;;;13.75;6.72;;;;;;;5.22;100.00;99017.50;10477373;28;20052;-71
2020/12/03 13:10:36;;;;;;;11.68;7.28;;;;;;;5.23;100.00;99008.75;10484465;28;20052;-71
2020/12/03 13:15:37;;;;;;;10.90;7.03;;;;;;;5.11;100.00;98998.03;10445888;28;20037;-71
2020/12/03 13:20:39;;;;;;;8.82;6.43;;;;;;;5.06;100.00;98984.38;10488258;28;20064;-70
2020/12/03 13:25:40;;;;;;;9.70;5.85;;;;;;;5.06;100.00;98960.88;10438935;28;20064;-70
2020/12/03 13:30:41;;;;;;;9.85;6.50;;;;;;;5.10;100.00;98957.22;10452859;28;20522;-70
2020/12/03 13:35:42;;;;;;;13.50;8.30;;;;;;;5.00;100.00;98930.72;10496137;28;20075;-71
2020/12/03 13:40:44;;;;;;;10.20;6.72;;;;;;;4.98;100.00;98937.75;10473054;28;20045;-70
2020/12/03 13:45:47;;;;;;;13.88;6.47;;;;;;;4.95;100.00;98924.84;10452851;28;20059;-70
2020/12/03 13:50:48;;;;;;;10.55;6.55;;;;;;;4.94;100.00;98912.72;10496469;28;20048;-69
2020/12/03 13:55:49;;;;;;;10.55;7.00;;;;;;;4.81;100.00;98894.22;10474413;28;20487;-70
2020/12/03 14:00:52;;;;;;;8.70;5.90;;;;;;;4.90;100.00;98905.97;10470833;28;20056;-69
2020/12/03 14:05:54;;;;;;;7.85;5.47;;;;;;;4.86;100.00;98886.16;10469801;28;20044;-69
2020/12/03 14:10:55;;;;;;;7.57;5.65;;;;;;;4.87;100.00;98887.84;10479724;28;20480;-69
2020/12/03 14:15:56;;;;;;;6.90;4.43;;;;;;;4.83;100.00;98879.34;10483591;28;20045;-70
2020/12/03 14:20:57;;;;;;;6.95;4.30;;;;;;;4.85;100.00;98867.03;10490033;28;20047;-71
2020/12/03 14:25:58;;;;;;;6.25;4.07;;;;;;;4.86;100.00;98860.06;10488350;28;20091;-71
2020/12/03 14:30:59;;;;;;;6.57;4.07;;;;;;;4.77;100.00;98845.69;10471962;28;20048;-70
2020/12/03 14:36:00;;;;;;;6.70;4.20;;;;;;;4.73;100.00;98836.34;10481642;28;20036;-70
2020/12/03 14:41:02;;;;;;;7.35;5.03;;;;;;;4.62;100.00;98819.53;10462834;28;20132;-70
2020/12/03 14:46:03;;;;;;;7.20;4.00;;;;;;;4.47;100.00;98826.34;10475128;28;20048;-70
2020/12/03 14:51:05;;;;;;;7.55;5.18;;;;;;;4.43;100.00;98824.81;10493279;28;20049;-70
2020/12/03 14:56:07;;;;;;;6.90;4.70;;;;;;;4.41;100.00;98811.84;10480593;28;20052;-70
2020/12/03 15:01:09;;;;;;;8.32;4.97;;;;;;;4.39;100.00;98810.22;10487653;28;20063;-70
2020/12/03 15:06:10;;;;;;;8.35;5.60;;;;;;;4.38;100.00;98806.75;10493690;28;20052;-72
2020/12/03 15:11:14;;;;;;;9.65;5.32;;;;;;;4.35;100.00;98772.19;10481724;28;20404;-71
2020/12/03 15:16:16;;;;;;;10.95;6.07;;;;;;;4.34;100.00;98776.56;10468748;28;20132;-71
2020/12/03 15:21:17;;;;;;;14.75;7.72;;;;;;;4.44;100.00;98763.91;10461318;28;20051;-71
2020/12/03 15:26:19;;;;;;;16.33;9.48;;;;;;;4.41;100.00;98751.03;10461758;28;20052;-72
2020/12/03 15:31:20;;;;;;;15.35;6.53;;;;;;;4.33;100.00;98750.56;10461083;28;20067;-72
2020/12/03 15:36:21;;;;;;;8.32;4.97;;;;;;;4.35;100.00;98736.50;10438516;28;20052;-71
2020/12/03 15:41:22;;;;;;;7.35;4.40;;;;;;;4.28;100.00;98705.63;10468030;28;20037;-71
2020/12/03 15:46:23;;;;;;;9.25;6.22;;;;;;;4.17;100.00;98707.00;10480869;28;20048;-70
2020/12/03 15:51:24;;;;;;;8.93;5.38;;;;;;;4.07;100.00;98707.53;10435700;28;20049;-71
2020/12/03 15:56:25;;;;;;;7.82;4.05;;;;;;;4.15;100.00;98723.63;10420451;28;20401;-71
2020/12/03 16:01:26;;;;;;;9.35;6.70;;;;;;;4.10;100.00;98692.56;10468919;28;20076;-71
2020/12/03 16:06:28;;;;;;;8.15;5.82;;;;;;;4.15;100.00;98685.38;10419802;28;20045;-71
2020/12/03 16:11:29;;;;;;;10.50;7.50;;;;;;;4.20;100.00;98682.53;10432691;28;20132;-72
2020/12/03 16:16:31;;;;;;;10.23;7.68;;;;;;;4.11;100.00;98669.97;10435450;28;20041;-71
2020/12/03 16:21:34;;;;;;;12.40;8.07;;;;;;;4.10;100.00;98658.69;10458053;28;20044;-71
2020/12/03 16:26:35;;;;;;;12.30;7.72;;;;;;;4.22;100.00;98648.59;10400094;28;20481;-70
2020/12/03 16:31:38;;;;;;;13.00;8.60;;;;;;;4.15;100.00;98635.88;10429220;28;20056;-72
2020/12/03 16:36:42;;;;;;;14.50;11.07;;;;;;;4.11;100.00;98625.66;10408862;28;20045;-70
2020/12/03 16:41:44;;;;;;;14.25;8.93;;;;;;;4.08;100.00;98610.19;10438185;28;20057;-71
2020/12/03 16:46:45;;;;;;;11.70;6.80;;;;;;;4.09;100.00;98602.31;10450350;28;20408;-70
2020/12/03 16:51:56;;;;;;;10.13;6.75;;;;;;;4.02;100.00;98590.50;10420044;28;20046;-70
2020/12/03 16:56:58;;;;;;;10.15;6.00;;;;;;;3.91;100.00;98560.69;10438073;28;20389;-70
2020/12/03 17:01:59;;;;;;;12.98;9.35;;;;;;;3.90;100.00;98567.66;10430456;28;20483;-70
2020/12/03 17:07:00;;;;;;;14.23;9.25;;;;;;;3.76;100.00;98550.13;10458069;28;20048;-71
2020/12/03 17:12:01;;;;;;;13.90;8.82;;;;;;;3.68;100.00;98536.63;10457333;28;20064;-71
2020/12/03 17:17:02;;;;;;;14.05;8.68;;;;;;;3.72;100.00;98537.31;10447169;28;20091;-70
2020/12/03 17:22:03;;;;;;;19.85;9.35;;;;;;;3.68;100.00;98510.59;10453641;28;20049;-70
2020/12/03 17:27:05;;;;;;;18.35;12.00;;;;;;;3.70;100.00;98528.75;10437419;28;20045;-71
2020/12/03 17:32:06;;;;;;;16.75;10.65;;;;;;;3.69;100.00;98514.03;10445843;28;20083;-70
2020/12/03 17:37:08;;;;;;;17.38;10.60;;;;;;;3.65;100.00;98494.28;10430891;28;20037;-70
2020/12/03 17:42:09;;;;;;;13.30;8.55;;;;;;;3.59;100.00;98468.56;10434804;28;20501;-71
2020/12/03 17:47:10;;;;;;;14.73;10.23;;;;;;;3.67;100.00;98487.25;10480129;28;20037;-71
2020/12/03 17:52:12;;;;;;;15.40;10.20;;;;;;;3.71;100.00;98462.72;10406343;28;20045;-70
2020/12/03 17:57:13;;;;;;;15.23;9.10;;;;;;;3.69;100.00;98465.41;10413808;28;20064;-71
2020/12/03 18:02:14;;;;;;;14.57;8.75;;;;;;;3.75;100.00;98453.84;10451385;28;20053;-71
2020/12/03 18:07:17;;;;;;;16.52;10.60;;;;;;;3.70;100.00;98438.44;10457459;28;20045;-70
2020/12/03 18:12:18;;;;;;;15.40;9.65;;;;;;;3.81;100.00;98445.72;10457905;28;20037;-70
2020/12/03 18:17:19;;;;;;;12.85;9.23;;;;;;;3.84;100.00;98440.38;10471298;28;20051;-70
2020/12/03 18:22:20;;;;;;;10.00;6.65;;;;;;;3.87;100.00;98432.38;10468043;28;20112;-70
2020/12/03 18:27:22;;;;;;;11.52;7.88;;;;;;;3.89;100.00;98411.47;10458441;28;20039;-70
2020/12/03 18:32:23;;;;;;;12.48;9.50;;;;;;;3.88;100.00;98405.41;10462862;28;20064;-70
2020/12/03 18:37:24;;;;;;;11.23;7.35;;;;;;;3.86;100.00;98412.47;10443283;28;20072;-70
2020/12/03 18:42:31;;;;;;;10.57;7.18;;;;;;;3.92;100.00;98396.53;10453956;28;20037;-70
2020/12/03 18:47:33;;;;;;;9.45;7.10;;;;;;;3.86;100.00;98401.19;10458025;28;20045;-70
2020/12/03 18:52:34;;;;;;;8.80;5.80;;;;;;;3.89;100.00;98391.47;10421329;28;20045;-70
2020/12/03 18:57:36;;;;;;;10.20;6.18;;;;;;;3.90;100.00;98379.28;10421064;28;20065;-70
2020/12/03 19:02:37;;;;;;;9.43;6.07;;;;;;;3.83;100.00;98365.75;10461363;28;20041;-70
2020/12/03 19:07:38;;;;;;;10.23;6.72;;;;;;;3.81;100.00;98354.56;10461280;28;20045;-70
2020/12/03 19:12:39;;;;;;;10.43;7.18;;;;;;;3.69;100.00;98335.22;10461429;28;20049;-70
2020/12/03 19:17:40;;;;;;;10.43;7.72;;;;;;;3.77;100.00;98332.22;10461307;28;20044;-70
2020/12/03 19:22:41;;;;;;;6.43;4.75;;;;;;;3.70;100.00;98330.84;10426887;28;20052;-70
2020/12/03 19:27:43;;;;;;;8.50;6.00;;;;;;;3.70;100.00;98331.69;10465657;28;20403;-69
2020/12/03 19:32:44;;;;;;;8.48;5.80;;;;;;;3.70;100.00;98310.88;10467585;28;20044;-70
2020/12/03 19:37:45;;;;;;;11.40;7.28;;;;;;;3.71;100.00;98303.91;10471126;28;20052;-70
2020/12/03 19:42:46;;;;;;;10.07;6.15;;;;;;;3.74;100.00;98275.94;10461915;28;20392;-70
2020/12/03 19:47:50;;;;;;;8.75;6.75;;;;;;;3.76;100.00;98274.09;10433958;28;20041;-70
2020/12/03 19:52:52;;;;;;;8.73;6.80;;;;;;;3.77;100.00;98248.88;10422144;28;20053;-70
2020/12/03 19:57:58;;;;;;;8.48;6.25;;;;;;;3.87;100.00;98257.88;10452228;28;20053;-69
2020/12/03 20:03:02;;;;;;;8.32;6.05;;;;;;;3.81;100.00;98258.22;10474891;28;20116;-70
2020/12/03 20:08:03;;;;;;;8.77;5.57;;;;;;;3.79;100.00;98224.44;10481612;28;20132;-70
2020/12/03 20:13:04;;;;;;;9.68;7.10;;;;;;;3.87;100.00;98221.41;10493518;28;20048;-70
2020/12/03 20:18:06;;;;;;;10.15;7.95;;;;;;;3.81;100.00;98206.97;10457058;28;20053;-70
2020/12/03 20:23:07;;;;;;;11.45;7.25;;;;;;;3.85;100.00;98251.91;10456267;28;20037;-69
2020/12/03 20:28:08;;;;;;;9.55;6.70;;;;;;;3.82;100.00;98189.59;10451963;28;20416;-70
2020/12/03 20:33:09;;;;;;;11.63;7.95;;;;;;;3.90;100.00;98207.41;10441384;28;20049;-70
2020/12/03 20:38:10;;;;;;;9.85;6.72;;;;;;;3.89;100.00;98193.53;10479713;28;20045;-70
2020/12/03 20:43:12;;;;;;;10.98;8.38;;;;;;;3.86;100.00;98165.03;10493113;28;20044;-70
2020/12/03 20:48:13;;;;;;;12.57;8.23;;;;;;;3.85;100.00;98152.13;10446310;28;20055;-70
2020/12/03 20:53:17;;;;;;;12.30;6.93;;;;;;;3.74;100.00;98137.09;10451260;28;20055;-70
2020/12/03 20:58:18;;;;;;;10.98;6.93;;;;;;;3.84;100.00;98156.50;10459235;28;20053;-69
2020/12/03 21:03:19;;;;;;;13.45;8.75;;;;;;;3.77;100.00;98131.69;10476103;28;20055;-70
2020/12/03 21:08:21;;;;;;;12.18;8.25;;;;;;;3.81;100.00;98147.09;10453666;28;20377;-70
2020/12/03 21:13:22;;;;;;;10.70;7.68;;;;;;;3.81;100.00;98136.66;10453601;28;20045;-70
2020/12/03 21:18:23;;;;;;;12.13;8.88;;;;;;;3.81;100.00;98128.84;10451223;28;20488;-70
2020/12/03 21:23:24;;;;;;;12.32;7.72;;;;;;;3.91;100.00;98120.53;10459913;28;20048;-70
2020/12/03 21:28:25;;;;;;;13.13;7.93;;;;;;;3.88;100.00;98108.50;10463197;28;20036;-70
2020/12/03 21:33:26;;;;;;;13.98;9.52;;;;;;;3.85;100.00;98090.44;10472923;28;20526;-70
2020/12/03 21:38:28;;;;;;;11.35;7.22;;;;;;;3.95;100.00;98072.53;10477533;28;20040;-70
2020/12/03 21:43:29;;;;;;;14.25;9.35;;;;;;;3.77;100.00;98050.97;10462176;28;20046;-70
2020/12/03 21:48:30;;;;;;;12.38;8.45;;;;;;;3.81;100.00;98042.09;10434905;28;20515;-70
2020/12/03 21:53:31;;;;;;;12.93;8.00;;;;;;;3.82;100.00;98030.75;10456610;28;20041;-70
2020/12/03 21:58:32;;;;;;;14.15;9.15;;;;;;;3.83;100.00;98018.56;10425894;28;20049;-70
2020/12/03 22:03:34;;;;;;;9.48;7.50;;;;;;;3.86;100.00;98039.19;10415072;28;20046;-70
2020/12/03 22:08:35;;;;;;;12.32;7.25;;;;;;;3.88;100.00;98022.56;10415149;28;20037;-70
2020/12/03 22:13:36;;;;;;;9.23;6.45;;;;;;;3.85;100.00;98020.13;10434627;28;20372;-69
2020/12/03 22:18:37;;;;;;;12.82;7.35;;;;;;;3.78;100.00;98024.03;10454063;28;20404;-70
2020/12/03 22:23:38;;;;;;;12.05;8.02;;;;;;;3.76;100.00;97994.66;10482886;28;20041;-70
2020/12/03 22:28:39;;;;;;;10.23;7.07;;;;;;;3.59;100.00;97971.38;10489112;28;20540;-70
2020/12/03 22:33:41;;;;;;;11.65;6.68;;;;;;;3.67;100.00;97987.38;10427216;28;20485;-70
2020/12/03 22:38:42;;;;;;;12.30;8.00;;;;;;;3.64;100.00;97945.88;10415428;28;20042;-70
2020/12/03 22:43:43;;;;;;;13.23;8.73;;;;;;;3.62;100.00;97968.56;10484008;28;20051;-70
2020/12/03 22:48:45;;;;;;;16.83;8.57;;;;;;;3.66;100.00;97938.84;10434480;28;20037;-70
2020/12/03 22:53:46;;;;;;;11.65;7.88;;;;;;;3.63;100.00;97916.41;10449367;28;20409;-70
2020/12/03 22:58:47;;;;;;;10.18;6.97;;;;;;;3.68;100.00;97909.16;10416498;28;20057;-70
2020/12/03 23:03:48;;;;;;;13.10;8.52;;;;;;;3.62;100.00;97900.88;10425005;28;20382;-70
2020/12/03 23:08:56;;;;;;;12.77;8.13;;;;;;;3.57;100.00;97875.13;10424925;28;20045;-70
2020/12/03 23:13:58;;;;;;;10.52;7.93;;;;;;;3.54;100.00;97866.66;10454080;28;20047;-70
2020/12/03 23:18:59;;;;;;;11.18;8.00;;;;;;;3.55;100.00;97868.34;10455085;28;20049;-70
2020/12/03 23:24:01;;;;;;;9.15;7.30;;;;;;;3.52;100.00;97860.72;10474190;28;20056;-69